Revaz Kakabadze

Scout - Dinamo Batumi
22 Feb 2027
Monday
Process

Personality

Adaptability (5) Ambition (19) Controversy (16) Loyalty (5) Pressure (13) Professionalism (7) Sportsmanship (1) Temperament (5)

Profile

Coaching Style Democratic
License Continental C
Determination 4
Man Management 8
Motivating 11
Discipline 10
Job Satisfaction
50%
Fatigue
0%
Role Scout
Wage 30.3K p/w
Contract 14.03.2028

Performance

Behaviour Normal
Training Effectiveness
14%
Player Development
35%
Injury Prevention
15%
Tactical Implementation
30%

Recent Events

Attended a recruitment meeting now
Recommended a transfer target now
Assessed a player now
Assessed a player now
Assessed a player now
Assessed a player now
Assessed a player 7d ago
Assessed a player 7d ago

Currently Monitoring

173
Player Club Status Ability Confidence Watched Last Observed Latest Vote
Vladimir Khubulov Dinamo Makhachkala Active 114 / 109 40% 2 21.02.2027 -
Leo Goglichidze Rodina Active 112 / 117 40% 3 21.02.2027 -
Mamadou Traoré Stade Malien Active 109 / 103 40% 1 21.02.2027 -
Roberto Fernández Akron Active 112 / 111 40% 2 20.02.2027 -
Kyreece Lisbie Colchester United Active 112 / 102 40% 2 20.02.2027 -
Hakeeb Adelakun Doncaster Rovers Active 96 / 115 40% 1 20.02.2027 -
Tom Pearce Chesterfield Active 110 / 122 40% 3 19.02.2027 -
Edarlyn Reyes Arsenal Tula Active 116 / 108 40% 2 19.02.2027 -
Valentín Vada Damac Active 131 / 121 40% 1 19.02.2027 -
Jordan Storey Preston Active 118 / 120 40% 2 18.02.2027 -
Radhi Al-Otaibi Al-Ettifaq Active 119 / 103 40% 1 18.02.2027 -
Miloš Brnović Arsenal Tula Active 114 / 117 40% 2 16.02.2027 -
Lewis Freestone Stevenage Active 102 / 96 40% 2 16.02.2027 -
Cameron McJannet Grimsby Town Active 110 / 112 40% 2 16.02.2027 -
Yakou Meïté Damac Active 120 / 127 40% 1 16.02.2027 -
Mohammad Alsalkhadi Damac Active 105 / 112 40% 1 16.02.2027 -
Ryan Johnson AFC Wimbledon Active 115 / 114 40% 2 14.02.2027 -
Charlie Webster Burton Albion Active 102 / 114 40% 2 14.02.2027 -
Jonathan Okoronkwo Torpedo Moscow Active 96 / 111 40% 1 14.02.2027 -
Kamil Conteh Bristol Rovers Active 101 / 110 40% 1 14.02.2027 -
Harry Williams Walsall Active 113 / 108 40% 1 14.02.2027 -
Fahd Moufi Baltika Active 116 / 107 40% 3 12.02.2027 -
Connor Barrett Walsall Active 98 / 100 40% 2 12.02.2027 -
Luca Connell Barnsley Active 105 / 105 40% 5 12.02.2027 -
Gavin Kilkenny Swindon Town Active 110 / 97 40% 1 12.02.2027 -
Daniel Rivillo Rotor Active 100 / 114 40% 1 12.02.2027 -
Jay Matete Milton Keynes Dons Active 122 / 96 40% 3 09.02.2027 -
Ryan Stirk Chesterfield Active 106 / 88 40% 1 09.02.2027 -
Denver Hume Fleetwood Town Active 93 / 104 40% 1 09.02.2027 -
Daniel Harvie Wycombe Wanderers Active 105 / 118 40% 3 08.02.2027 -
Toby Sibbick Burton Albion Active 111 / 108 40% 1 08.02.2027 -
Mohamed Azzi Dinamo Makhachkala Active 113 / 111 40% 1 08.02.2027 -
Ilja Zhigulev Chernomorets Active 96 / 109 40% 1 08.02.2027 -
Mo Dauda Portimonense Active 97 / 119 40% 1 08.02.2027 -
Johnly Yfeko Exeter City Active 107 / 107 40% 3 06.02.2027 -
Armando Lopes Felgueiras Active 96 / 102 40% 2 06.02.2027 -
Rifat Zhemaletdinov Ural Active 118 / 117 40% 2 06.02.2027 -
Stefan Lončar Akron Active 115 / 120 40% 1 06.02.2027 -
Kabelo Dlamini Orlando Pirates Active 95 / 93 40% 1 06.02.2027 -
Diego Murillo Málaga Active 124 / 111 40% 1 06.02.2027 -
Ognjen Bjeličić Hamrun Spartans Active 98 / 87 40% 2 05.02.2027 -
Gleb Shevchenko Torpedo Moscow Active 111 / 114 40% 1 05.02.2027 -
Hakeem Odoffin Luton Town Active 107 / 114 40% 1 01.02.2027 -
Kyle John Port Vale Active 117 / 124 40% 1 01.02.2027 -
Alistair Smith AFC Wimbledon Active 97 / 90 40% 1 01.02.2027 -
Danila Shilov Dinamo Stavropol Active 95 / 92 40% 4 31.01.2027 -
Josh Woods Accrington Stanley Active 81 / 69 40% 2 31.01.2027 -
Miguel Sousa Leixões Active 106 / 115 40% 1 31.01.2027 -
Luis Chávez Dinamo Moscow Active 138 / 132 40% 1 31.01.2027 -
Ousmane Coulibaly Stade Malien Active 99 / 91 40% 1 31.01.2027 -
Morad Khodari Al-Wehda Active 96 / 84 40% 1 31.01.2027 -
Soltmurad Bakaev Rodina Active 113 / 99 40% 2 28.01.2027 -
Dmitry Tsypchenko Torpedo Moscow Active 103 / 102 40% 1 28.01.2027 -
Brian Figueroa Morelia Active 118 / 116 40% 1 28.01.2027 -
Daniel Kyerewaa Reading Active 121 / 110 40% 3 27.01.2027 -
Jhon Palacios Orenburg Active 113 / 105 40% 2 27.01.2027 -
Vladis Emmersón Yenisey Active 106 / 104 40% 1 27.01.2027 -
Charles Vernam Grimsby Town Active 112 / 112 40% 1 27.01.2027 -
Valentin Yefimov Ravan Active 129 / 128 40% 1 27.01.2027 -
Jack Currie Oxford United Rejected 130 / 131 40% 3 20.01.2027 Reject
Tomasz Wójtowicz Lechia Active 104 / 111 40% 2 20.01.2027 -
Nikolay Tarasov Spartak Kostroma Active 96 / 92 40% 1 19.01.2027 -
Ipalibo Jack Hamrun Spartans Active 95 / 89 40% 1 19.01.2027 -
Slobodan Tedić Akron Active 114 / 117 40% 3 18.01.2027 -
Giancarlo Mosta Active 77 / 81 40% 2 18.01.2027 -
Levan Kakubava Guria Active 80 / 95 72% 1 18.01.2027 Approve
Kirill Bogdanets Volna Active 83 / 95 40% 1 18.01.2027 -
Ramazan Gadjimuradov Chelyabinsk Active 100 / 104 40% 2 17.01.2027 -
Eldar Ćivić Baltika Active 113 / 110 40% 2 17.01.2027 -
Corey O'Keeffe Barnsley Active 114 / 114 40% 1 15.01.2027 -
Jordan Brown Blackpool Active 98 / 96 40% 1 14.01.2027 -
Gonzalo Gamarra Floriana Active 93 / 95 40% 1 14.01.2027 -
Ilja Agapov Ufa Active 117 / 116 40% 1 12.01.2027 -
Simphiwe Selepe Orlando Pirates Active 108 / 115 40% 1 11.01.2027 -
Jayden Sweeney Grimsby Town Active 95 / 92 40% 1 11.01.2027 -
Liam Bennett Cambridge United Active 112 / 117 40% 2 07.01.2027 -
Revaz Mikautadze Tskhinvali Rejected 106 / 98 72% 1 07.01.2027 Reject
Nikita Pechenkin Sokol Active 100 / 94 40% 1 04.01.2027 -
Shaun Rooney Fleetwood Town Rejected 91 / 86 40% 2 02.01.2027 Needs More Info
Artem Makarchuk Sochi Active 109 / 109 40% 1 02.01.2027 -
Darko Todorović Fakel Active 108 / 119 40% 1 02.01.2027 -
Stephen Duke-McKenna KAMAZ Active 88 / 97 40% 1 29.12.2026 -
Krasian Kolev Chernomorets Active 96 / 92 40% 1 29.12.2026 -
Uriël Van Aalst Willem II Active 109 / 97 40% 3 27.12.2026 -
Daniil Gurchenko Spartak Tambov Active 87 / 94 40% 2 27.12.2026 -
Dilan Ortíz Ufa Active 101 / 92 40% 1 27.12.2026 -
Patryk Szwedzik Ruch Active 101 / 109 40% 1 27.12.2026 -
Jack Lankester Crewe Alexandra Active 106 / 100 40% 1 25.12.2026 -
Jamie Jellis Walsall Active 83 / 85 40% 1 25.12.2026 -
Matt Smith Newport County Active 87 / 87 40% 2 24.12.2026 -
Lewis McCann Fleetwood Town Active 91 / 100 40% 3 23.12.2026 -
Sergio Lozano Jagiellonia Active 116 / 132 40% 1 23.12.2026 -
Gilson Benchimol Akron Active 113 / 117 40% 2 20.12.2026 -
Tenton Yenne Baltika Active 105 / 103 40% 1 20.12.2026 -
Vladislav Yakovlev Volga Active 86 / 91 40% 1 19.12.2026 -
Marcelo Flores Tigres Active 126 / 125 40% 1 19.12.2026 -
Pedro Cejas Zabbar St. Patrick Active 96 / 105 40% 2 18.12.2026 -
Mikhail Ignatov Sochi Active 107 / 117 40% 1 17.12.2026 -
Ibragim Umarov Pobeda Active 90 / 96 40% 1 15.12.2026 -
Mateo Fernández Angusht Active 71 / 82 40% 4 14.12.2026 -
Pavel Popov Volna Active 78 / 93 40% 2 14.12.2026 -
Nikita Simdyankin KDV Tomsk Active 78 / 90 40% 1 13.12.2026 -
Daniil Konoplev Dinamo Bryansk Active 83 / 85 40% 2 11.12.2026 -
Egor Bogomolskiy Zira Active 108 / 105 40% 1 10.12.2026 -
Dennis Amoako Lokomotivi Active 80 / 89 40% 1 10.12.2026 -
Tyrese Shade Burton Albion Active 99 / 100 40% 3 09.12.2026 -
Samy Merheg Alverca Active 118 / 128 40% 1 09.12.2026 -
Temirkan Sundukov Dinamo Makhachkala Rejected 115 / 101 40% 1 07.12.2026 Needs More Info
Denil Maldonado Rubin Rejected 112 / 130 40% 1 07.12.2026 Needs More Info
Louis Appéré Cambridge United Active 105 / 111 40% 2 04.12.2026 -
Jack Vale Alcione Milano Active 99 / 109 40% 1 04.12.2026 -
Maxim Kutovoy Salyut Active 79 / 86 40% 2 30.11.2026 -
Jere Vrcić Birkirkara Active 82 / 98 40% 1 30.11.2026 -
Yeangel Montero Naxxar Lions Active 107 / 109 40% 4 29.11.2026 -
Eren Aydın Zira Active 113 / 109 40% 2 29.11.2026 -
Ousmane Diawara Altach Active 116 / 90 40% 1 25.11.2026 -
Mahir Abdullayev AZAL Active 103 / 118 40% 1 24.11.2026 -
Daniil Agureev Amkar Active 92 / 83 40% 1 24.11.2026 -
Georg Stojanovski Spartak 1918 Active 103 / 97 40% 1 24.11.2026 -
Miro Dinamo Makhachkala Active 116 / 116 40% 2 23.11.2026 -
Ivo Costantino Danubio Active 120 / 125 40% 1 23.11.2026 -
Kamarai Swyer Northampton Town Active 97 / 82 40% 1 22.11.2026 -
Algassime Bah Dinamo Tbilisi Active 95 / 100 40% 2 21.11.2026 -
Simone Ianesi Pianese Active 100 / 94 40% 1 21.11.2026 -
Promise Omochere Bristol Rovers Active 93 / 106 40% 2 20.11.2026 -
Mésaque Djú Portimonense Active 99 / 94 40% 1 20.11.2026 -
Isaac Matondo Koper Active 104 / 103 40% 1 16.11.2026 -
Cavid Madatov Khazar Lost 93 / 85 40% 2 15.11.2026 -
Ilja Grischenko Kaluga Active 90 / 85 40% 1 09.11.2026 -
Soslan Lysenko Spartak Nalchik Active 83 / 84 40% 1 07.11.2026 -
Trévis Dago Stade Lavallois Active 99 / 105 40% 1 07.11.2026 -
Giorgi Tsetskhladze Kolkheti Active 89 / 95 40% 1 05.11.2026 -
Denys Rezepov Nyva Active 101 / 93 40% 1 05.11.2026 -
Gonzalo Córdoba Lokomotivi Active 100 / 108 40% 2 03.11.2026 -
Mikhail Gainov Dinamo Stavropol Active 77 / 76 40% 1 03.11.2026 -
Dominik Kocsis Debrecen Active 102 / 110 40% 1 03.11.2026 -
Davit Gotsiridze Kolkheti Active 86 / 73 40% 1 29.10.2026 -
Timur Suleimanov Rostov Active 122 / 127 40% 1 19.10.2026 -
Suraju Lawal Abia Warriors Active 97 / 73 40% 1 16.10.2026 -
Stanislav Biblyk Chaika Active 101 / 85 40% 1 16.10.2026 -
Fernand Gouré Westerlo Active 101 / 100 40% 1 16.10.2026 -
Abdulmajid Aminu Barau Active 76 / 97 40% 1 15.10.2026 -
Mevran Ablak Sapovnela Active 75 / 70 40% 1 08.10.2026 -
Andrés Dieppa Zugdidi Active 97 / 88 40% 1 08.10.2026 -
Elly Saenyi Muranga Seal Active 81 / 58 40% 1 06.10.2026 -
Ben Stanley Omondi Gor Mahia Active 79 / 101 40% 1 01.10.2026 -
Jordan Williams Portsmouth Active 114 / 120 40% 1 01.10.2026 -
Valentín Depietri Talleres Active 113 / 133 40% 1 28.09.2026 -
Julen Cordero Samtredia Active 92 / 100 40% 2 27.09.2026 -
Mitch Clark Port Vale Active 89 / 99 40% 1 27.09.2026 -
Cemran Dansin Orlando Pirates Active 98 / 128 40% 1 27.09.2026 -
Lasha Menteshashvili Dila Active 85 / 89 40% 2 23.09.2026 -
Dylan Duffy Chesterfield Active 106 / 103 40% 1 23.09.2026 -
Vincent Harper Walsall Active 96 / 106 40% 1 21.09.2026 -
Amza Moubarack Bandari Active 80 / 85 40% 1 20.09.2026 -
Giorgi Kokhreidze Torpedo Kutaisi Active 106 / 89 40% 1 20.09.2026 -
Robin Gonzalez HNK Vukovar 1991 Active 118 / 124 40% 1 20.09.2026 -
Jonathan Sulemana BA All Stars Active 113 / 120 40% 1 19.09.2026 -
Nodar Lominadze Torpedo Kutaisi Active 104 / 117 40% 1 19.09.2026 -
Benjamin Böckle Altach Active 103 / 125 40% 1 18.09.2026 -
Warley Torpedo Kutaisi Active 90 / 108 40% 1 15.09.2026 -
Yves Koutiama Kenya Police Active 93 / 76 40% 1 15.09.2026 -
Ayrton Portillo Defensa y Justicia Active 123 / 121 40% 1 14.09.2026 -
Lucas Souto Defensa y Justicia Active 118 / 117 40% 1 14.09.2026 -
Jorge Espejo Universidad de Concepcion Active 116 / 121 40% 1 14.09.2026 -
Mauricio Cardillo San Lorenzo Active 107 / 111 40% 1 11.09.2026 -
Joshua Nyatini Kakamega Homeboyz Active 72 / 66 40% 1 07.09.2026 -
Doueugui Mala Merani Active 84 / 84 42% 1 / 1m 19.08.2026 -
Andro Jolokhava Merani Active 60 / 65 42% 1 / 1m 12.08.2026 -
Emmanuel Boansi Dila Active 80 / 85 30% 1 / 1m 12.08.2026 -
Khazbulat Khamkhoev Merani Active 90 / 90 30% 1 / 1m 12.08.2026 Needs More Info
Fiacre Ntwari Kaizer Chiefs Active 97 / 116 40% 1 01.08.2026 -
Svetoslav Vutsov Levski Active 122 / 134 40% 1 01.08.2026 -